createdAt,value
2022-08-22T00:00:37.232Z,57.71
2022-08-22T00:03:03.384Z,42.92
2022-08-22T00:03:10.807Z,43.51
2022-08-22T00:03:11.930Z,52.88
2022-08-22T00:03:17.601Z,57.60
2022-08-22T00:05:48.054Z,58.62
2022-08-22T00:08:23.957Z,58.34
2022-08-22T00:10:59.319Z,58.26
2022-08-22T00:13:42.744Z,58.74
2022-08-22T00:16:15.851Z,60.43
2022-08-22T00:18:55.698Z,60.00
2022-08-22T00:21:31.199Z,59.98
2022-08-22T00:24:09.943Z,60.49
2022-08-22T00:27:02.904Z,60.38
2022-08-22T00:29:49.602Z,59.70
2022-08-22T00:32:45.045Z,59.86
2022-08-22T00:35:45.236Z,58.86
2022-08-22T00:38:33.803Z,59.08
2022-08-22T00:41:28.594Z,59.30
2022-08-22T00:44:34.202Z,58.98
2022-08-22T00:47:03.851Z,59.38
2022-08-22T00:49:55.373Z,59.64
2022-08-22T00:52:37.456Z,61.18
2022-08-22T00:55:39.660Z,60.95
2022-08-22T00:58:37.884Z,60.88
2022-08-22T01:01:09.141Z,60.15
2022-08-22T01:03:45.044Z,61.31
2022-08-22T01:06:37.367Z,61.34
2022-08-22T01:09:31.605Z,61.68
2022-08-22T01:12:30.248Z,61.22
2022-08-22T01:15:06.674Z,61.54
2022-08-22T01:18:12.010Z,61.14
2022-08-22T01:21:12.659Z,60.81
2022-08-22T01:24:16.961Z,61.25
2022-08-22T01:26:59.415Z,61.16
2022-08-22T01:29:47.365Z,61.45
2022-08-22T01:32:57.349Z,62.10
2022-08-22T01:35:45.106Z,61.63
2022-08-22T01:38:43.969Z,62.47
2022-08-22T01:41:19.845Z,61.89
2022-08-22T01:44:09.977Z,62.38
2022-08-22T01:46:55.259Z,62.54
2022-08-22T01:49:31.644Z,61.97
2022-08-22T01:52:04.638Z,61.63
2022-08-22T01:54:48.979Z,61.46
2022-08-22T01:57:17.561Z,62.17
2022-08-22T01:59:50.292Z,62.51
2022-08-22T02:02:48.086Z,62.66
2022-08-22T02:05:34.941Z,62.42
2022-08-22T02:08:23.582Z,61.90
2022-08-22T02:11:10.143Z,62.07
2022-08-22T02:13:47.751Z,63.99
2022-08-22T02:16:42.619Z,66.77
2022-08-22T02:19:15.331Z,65.57
2022-08-22T02:21:56.757Z,65.76
2022-08-22T02:24:38.766Z,66.42
2022-08-22T02:27:31.528Z,65.85
2022-08-22T02:30:05.938Z,66.14
2022-08-22T02:32:41.759Z,66.00
2022-08-22T02:35:28.866Z,66.06
2022-08-22T02:38:21.033Z,65.88
2022-08-22T02:40:53.957Z,64.56
2022-08-22T02:43:26.812Z,63.68
2022-08-22T02:46:23.216Z,63.07
2022-08-22T02:48:54.952Z,63.04
2022-08-22T02:51:24.588Z,63.73
2022-08-22T02:54:41.735Z,63.80
2022-08-22T02:57:17.107Z,64.23
2022-08-22T03:00:31.172Z,63.23
2022-08-22T03:02:58.802Z,62.90
2022-08-22T03:05:37.526Z,62.70
2022-08-22T03:08:22.071Z,62.77
2022-08-22T03:11:01.255Z,63.99
2022-08-22T03:13:48.068Z,64.26
2022-08-22T03:16:40.266Z,64.40
2022-08-22T03:19:20.130Z,64.18
2022-08-22T03:22:00.472Z,63.90
2022-08-22T03:24:38.838Z,63.77
2022-08-22T03:27:17.404Z,63.56
2022-08-22T03:30:12.380Z,63.29
2022-08-22T03:33:19.120Z,63.49
2022-08-22T03:35:45.693Z,63.77
2022-08-22T03:38:18.264Z,63.78
2022-08-22T03:40:44.886Z,64.09
2022-08-22T03:43:20.342Z,66.48
2022-08-22T03:46:09.409Z,65.95
2022-08-22T03:48:42.130Z,65.59
2022-08-22T03:51:39.230Z,65.30
2022-08-22T03:54:30.634Z,64.43
2022-08-22T03:57:06.515Z,64.29
2022-08-22T03:59:42.465Z,65.72
2022-08-22T04:02:43.652Z,65.56
2022-08-22T04:05:37.931Z,65.83
2022-08-22T04:08:37.129Z,65.54
2022-08-22T04:11:39.354Z,65.59
2022-08-22T04:14:12.096Z,65.00
2022-08-22T04:17:06.435Z,64.62
2022-08-22T04:19:59.991Z,64.85
2022-08-22T04:22:41.639Z,66.66
2022-08-22T04:25:16.664Z,67.23
2022-08-22T04:27:49.202Z,68.78
2022-08-22T04:30:42.138Z,68.06
2022-08-22T04:33:25.980Z,66.98
2022-08-22T04:36:01.786Z,66.15
2022-08-22T04:38:42.073Z,66.25
2022-08-22T04:41:17.013Z,67.00
2022-08-22T04:43:51.660Z,66.79
2022-08-22T04:46:36.804Z,67.00
2022-08-22T04:49:32.342Z,66.11
2022-08-22T04:52:18.122Z,66.39
2022-08-22T04:55:09.786Z,66.41
2022-08-22T04:57:49.065Z,66.21
2022-08-22T05:00:16.903Z,66.33
2022-08-22T05:02:51.406Z,66.48
2022-08-22T05:05:25.918Z,67.38
2022-08-22T05:07:57.179Z,68.09
2022-08-22T05:10:35.401Z,70.04
2022-08-22T05:13:07.306Z,69.86
2022-08-22T05:15:37.442Z,67.69
2022-08-22T05:18:29.857Z,67.43
2022-08-22T05:21:01.126Z,66.81
2022-08-22T05:23:48.049Z,68.01
2022-08-22T05:26:17.508Z,68.03
2022-08-22T05:28:52.949Z,67.09
2022-08-22T05:31:34.704Z,67.38
2022-08-22T05:34:10.777Z,66.00
2022-08-22T05:36:43.159Z,66.34
2022-08-22T05:39:22.297Z,66.02
2022-08-22T05:41:55.129Z,65.98
2022-08-22T05:44:34.148Z,64.99
2022-08-22T05:47:24.434Z,64.62
2022-08-22T05:50:12.825Z,64.15
2022-08-22T05:52:58.548Z,65.35
2022-08-22T05:55:50.486Z,65.22
2022-08-22T05:58:20.193Z,64.24
2022-08-22T06:00:52.220Z,61.23
2022-08-22T06:03:33.038Z,59.10
2022-08-22T06:06:06.948Z,59.99
2022-08-22T06:08:39.291Z,60.61
2022-08-22T06:11:19.294Z,60.29
2022-08-22T06:14:01.576Z,57.72
2022-08-22T06:16:48.672Z,58.87
2022-08-22T06:19:19.837Z,60.36
2022-08-22T06:21:50.819Z,59.94
2022-08-22T06:24:24.902Z,57.95
2022-08-22T06:26:54.998Z,56.93
2022-08-22T06:29:34.740Z,57.25
2022-08-22T06:32:09.697Z,56.39
2022-08-22T06:34:40.770Z,57.75
2022-08-22T06:37:15.310Z,58.88
2022-08-22T06:39:45.608Z,53.94
2022-08-22T06:42:16.945Z,55.74
2022-08-22T06:44:51.047Z,56.73
2022-08-22T06:47:52.949Z,56.24
2022-08-22T06:50:32.198Z,53.97
2022-08-22T06:53:14.514Z,53.36
2022-08-22T06:55:47.712Z,52.92
2022-08-22T06:58:20.366Z,51.29
2022-08-22T07:00:58.877Z,50.53
2022-08-22T07:03:43.568Z,50.16
2022-08-22T07:06:17.253Z,50.87
2022-08-22T07:08:44.821Z,50.77
2022-08-22T07:11:29.496Z,50.42
2022-08-22T07:14:08.422Z,49.30
2022-08-22T07:17:02.810Z,50.47
2022-08-22T07:19:40.162Z,50.38
2022-08-22T07:22:33.987Z,50.17
2022-08-22T07:25:03.670Z,49.69
2022-08-22T07:27:58.681Z,49.13
2022-08-22T07:30:36.899Z,52.31
2022-08-22T07:33:25.907Z,51.29
2022-08-22T07:36:07.035Z,50.02
2022-08-22T07:38:41.105Z,49.94
2022-08-22T07:41:19.710Z,49.83
2022-08-22T07:43:55.334Z,51.91
2022-08-22T07:46:40.037Z,50.20
2022-08-22T07:49:26.371Z,48.55
2022-08-22T07:51:57.458Z,49.20
2022-08-22T07:54:28.663Z,49.37
2022-08-22T07:57:01.183Z,48.62
2022-08-22T07:59:30.974Z,49.56
2022-08-22T08:02:01.100Z,47.44
2022-08-22T08:04:39.520Z,47.88
2022-08-22T08:07:09.987Z,47.63
2022-08-22T08:09:45.655Z,46.97
2022-08-22T08:12:14.809Z,46.83
2022-08-22T08:14:45.330Z,46.94
2022-08-22T08:17:14.968Z,45.15
2022-08-22T08:19:43.102Z,45.36
2022-08-22T08:22:17.071Z,46.63
2022-08-22T08:24:45.355Z,47.13
2022-08-22T08:27:20.544Z,46.68
2022-08-22T08:29:54.047Z,47.81
2022-08-22T08:32:24.302Z,46.94
2022-08-22T08:34:52.052Z,45.99
2022-08-22T08:37:48.199Z,44.96
2022-08-22T08:40:33.772Z,43.53
2022-08-22T08:43:13.000Z,42.34
2022-08-22T08:45:59.077Z,43.59
2022-08-22T08:48:34.244Z,43.23
2022-08-22T08:51:24.017Z,45.03
2022-08-22T08:54:30.051Z,45.20
2022-08-22T08:57:24.092Z,43.26
2022-08-22T08:59:53.946Z,42.89
2022-08-22T09:02:45.338Z,44.31
2022-08-22T09:08:40.007Z,42.55
2022-08-22T09:11:27.078Z,39.63
2022-08-22T09:13:55.387Z,41.58
2022-08-22T09:16:38.799Z,41.75
2022-08-22T09:19:49.383Z,40.42
2022-08-22T09:22:25.221Z,40.01
2022-08-22T09:25:17.302Z,39.45
2022-08-22T09:28:21.518Z,38.89
2022-08-22T09:31:00.251Z,39.53
2022-08-22T09:33:37.960Z,41.35
2022-08-22T09:36:19.917Z,39.72
2022-08-22T09:39:05.877Z,37.59
2022-08-22T09:41:43.899Z,37.34
2022-08-22T09:44:34.987Z,37.28
2022-08-22T09:47:24.695Z,39.39
2022-08-22T09:50:07.966Z,36.85
2022-08-22T09:53:05.729Z,39.48
2022-08-22T09:56:15.002Z,39.21
2022-08-22T09:58:54.351Z,37.06
2022-08-22T10:02:01.300Z,37.01
2022-08-22T10:05:04.034Z,36.35
2022-08-22T10:07:40.059Z,34.60
2022-08-22T10:10:21.853Z,33.79
2022-08-22T10:13:14.278Z,33.60
2022-08-22T10:16:01.452Z,34.62
2022-08-22T10:18:36.860Z,33.86
2022-08-22T10:21:20.154Z,33.83
2022-08-22T10:23:59.321Z,34.10
2022-08-22T10:26:46.267Z,33.36
2022-08-22T10:29:24.506Z,32.50
2022-08-22T10:32:07.384Z,32.25
2022-08-22T10:34:46.964Z,33.66
2022-08-22T10:37:23.766Z,33.08
2022-08-22T10:40:15.979Z,32.78
2022-08-22T10:43:02.646Z,32.88
2022-08-22T10:45:43.845Z,34.14
2022-08-22T10:48:10.591Z,34.23
2022-08-22T10:50:49.186Z,33.97
2022-08-22T10:53:28.303Z,33.46
2022-08-22T10:56:11.262Z,34.53
2022-08-22T10:58:44.074Z,32.98
2022-08-22T11:01:37.886Z,33.03
2022-08-22T11:04:20.406Z,32.81
2022-08-22T11:07:18.111Z,32.99
2022-08-22T11:09:58.529Z,33.13
2022-08-22T11:12:34.905Z,33.16
2022-08-22T11:15:28.491Z,31.93
2022-08-22T11:19:01.833Z,31.64
2022-08-22T11:21:51.015Z,31.75
2022-08-22T11:24:53.937Z,30.98
2022-08-22T11:27:40.924Z,29.41
2022-08-22T11:30:18.750Z,30.24
2022-08-22T11:32:59.425Z,31.32
2022-08-22T11:35:35.373Z,31.64
2022-08-22T11:38:10.922Z,31.68
2022-08-22T11:40:56.001Z,30.62
2022-08-22T11:43:22.651Z,31.23
2022-08-22T11:45:53.479Z,31.44
2022-08-22T11:48:40.510Z,30.25
2022-08-22T11:51:51.056Z,30.75
2022-08-22T11:54:46.042Z,30.15
2022-08-22T11:57:16.541Z,30.05
2022-08-22T11:59:43.395Z,30.48
2022-08-22T12:02:26.588Z,29.82
2022-08-22T12:05:03.772Z,30.39
2022-08-22T12:08:21.331Z,28.64
2022-08-22T12:11:02.664Z,29.79
2022-08-22T12:14:06.216Z,28.21
2022-08-22T12:17:02.073Z,29.79
2022-08-22T12:20:16.478Z,30.19
2022-08-22T12:22:51.186Z,29.40
2022-08-22T12:25:18.034Z,30.12
2022-08-22T12:27:55.117Z,28.53
2022-08-22T12:30:38.807Z,29.42
2022-08-22T12:33:25.514Z,28.54
2022-08-22T12:36:09.494Z,29.57
2022-08-22T12:38:57.026Z,29.97
2022-08-22T12:42:04.143Z,30.25
2022-08-22T12:44:36.363Z,28.97
2022-08-22T12:47:17.278Z,28.57
2022-08-22T12:50:06.108Z,29.05
2022-08-22T12:52:45.162Z,27.54
2022-08-22T12:55:27.448Z,27.17
2022-08-22T12:57:57.458Z,28.04
2022-08-22T13:00:43.937Z,28.40
2022-08-22T13:03:18.151Z,27.76
2022-08-22T13:05:59.766Z,27.48
2022-08-22T13:08:39.729Z,27.44
2022-08-22T13:11:12.442Z,26.17
2022-08-22T13:13:56.774Z,27.19
2022-08-22T13:16:26.347Z,27.72
2022-08-22T13:19:07.815Z,26.73
2022-08-22T13:21:46.838Z,28.23
2022-08-22T13:24:22.584Z,27.41
2022-08-22T13:27:10.773Z,25.96
2022-08-22T13:29:48.402Z,26.82
2022-08-22T13:32:27.743Z,27.66
2022-08-22T13:34:57.453Z,27.52
2022-08-22T13:37:36.439Z,28.77
2022-08-22T13:40:08.945Z,26.85
2022-08-22T13:42:44.998Z,27.05
2022-08-22T13:45:24.190Z,27.66
2022-08-22T13:47:56.898Z,27.54
2022-08-22T13:50:27.452Z,29.21
2022-08-22T13:53:04.234Z,26.84
2022-08-22T13:55:57.443Z,27.79
2022-08-22T13:58:37.797Z,26.93
2022-08-22T14:01:28.677Z,28.35
2022-08-22T14:04:19.971Z,27.08
2022-08-22T14:07:02.662Z,27.37
2022-08-22T14:09:49.119Z,28.07
2022-08-22T14:12:23.620Z,28.40
2022-08-22T14:14:57.253Z,29.61
2022-08-22T14:17:33.859Z,27.76
2022-08-22T14:20:13.285Z,27.80
2022-08-22T14:23:13.579Z,28.20
2022-08-22T14:25:42.575Z,26.38
2022-08-22T14:28:27.450Z,27.99
2022-08-22T14:31:03.623Z,27.42
2022-08-22T14:33:35.449Z,28.16
2022-08-22T14:36:11.460Z,27.62
2022-08-22T14:38:46.500Z,29.67
2022-08-22T14:41:52.941Z,28.28
2022-08-22T14:44:27.812Z,28.11
2022-08-22T14:47:03.761Z,28.52
2022-08-22T14:49:35.362Z,27.94
2022-08-22T14:52:07.286Z,27.82
2022-08-22T14:54:37.182Z,28.70
2022-08-22T14:57:10.383Z,28.66
2022-08-22T14:59:45.463Z,27.59
2022-08-22T15:02:17.796Z,28.12
2022-08-22T15:04:51.541Z,28.49
2022-08-22T15:07:32.187Z,27.95
2022-08-22T15:10:17.660Z,27.75
2022-08-22T15:12:54.378Z,27.41
2022-08-22T15:15:41.216Z,26.84
2022-08-22T15:18:19.193Z,27.81
2022-08-22T15:20:52.076Z,27.65
2022-08-22T15:23:21.723Z,27.44
2022-08-22T15:26:05.207Z,26.92
2022-08-22T15:28:49.814Z,27.29
2022-08-22T15:31:20.688Z,26.67
2022-08-22T15:33:48.431Z,27.61
2022-08-22T15:36:20.437Z,26.84
2022-08-22T15:38:54.459Z,27.24
2022-08-22T15:41:31.364Z,27.09
2022-08-22T15:44:02.727Z,27.33
2022-08-22T15:46:32.682Z,27.48
2022-08-22T15:49:11.113Z,27.30
2022-08-22T15:51:42.680Z,27.00
2022-08-22T15:54:24.785Z,27.37
2022-08-22T15:56:52.187Z,27.54
2022-08-22T15:59:53.574Z,27.58
2022-08-22T16:02:55.327Z,28.61
2022-08-22T16:05:27.663Z,28.76
2022-08-22T16:07:57.319Z,28.37
2022-08-22T16:10:23.827Z,28.42
2022-08-22T16:13:27.604Z,27.75
2022-08-22T16:16:01.546Z,28.32
2022-08-22T16:18:34.340Z,28.79
2022-08-22T16:21:13.454Z,29.57
2022-08-22T16:23:55.601Z,29.55
2022-08-22T16:26:31.386Z,29.99
2022-08-22T16:29:37.712Z,30.89
2022-08-22T16:32:11.700Z,29.78
2022-08-22T16:34:41.463Z,29.45
2022-08-22T16:37:14.135Z,29.58
2022-08-22T16:39:40.873Z,30.22
2022-08-22T16:42:13.545Z,30.25
2022-08-22T16:44:45.601Z,30.38
2022-08-22T16:47:30.691Z,31.00
2022-08-22T16:50:03.684Z,31.12
2022-08-22T16:52:30.341Z,31.00
2022-08-22T16:55:05.718Z,31.42
2022-08-22T16:58:09.830Z,31.93
2022-08-22T17:00:36.650Z,32.06
2022-08-22T17:03:18.153Z,32.98
2022-08-22T17:06:22.467Z,33.14
2022-08-22T17:09:04.341Z,33.09
2022-08-22T17:11:56.297Z,32.86
2022-08-22T17:14:49.026Z,33.04
2022-08-22T17:17:49.435Z,32.70
2022-08-22T17:20:27.841Z,32.67
2022-08-22T17:22:57.766Z,33.03
2022-08-22T17:25:50.079Z,33.14
2022-08-22T17:28:35.167Z,33.16
2022-08-22T17:31:11.678Z,33.30
2022-08-22T17:33:41.299Z,33.69
2022-08-22T17:36:26.994Z,34.22
2022-08-22T17:39:29.086Z,34.44
2022-08-22T17:42:23.793Z,34.76
2022-08-22T17:45:25.725Z,34.95
2022-08-22T17:48:05.260Z,35.21
2022-08-22T17:50:42.674Z,35.27
2022-08-22T17:53:23.091Z,35.52
2022-08-22T17:55:55.909Z,36.22
2022-08-22T17:58:31.693Z,36.61
2022-08-22T18:01:20.209Z,36.83
2022-08-22T18:03:57.420Z,36.93
2022-08-22T18:06:28.817Z,37.03
2022-08-22T18:09:15.616Z,37.34
2022-08-22T18:11:45.570Z,37.79
2022-08-22T18:14:25.181Z,37.17
2022-08-22T18:16:54.189Z,37.24
2022-08-22T18:19:23.841Z,37.11
2022-08-22T18:22:22.696Z,37.38
2022-08-22T18:25:01.486Z,37.51
2022-08-22T18:27:47.402Z,37.08
2022-08-22T18:30:19.803Z,37.45
2022-08-22T18:32:59.702Z,37.66
2022-08-22T18:35:40.156Z,37.87
2022-08-22T18:38:22.377Z,37.85
2022-08-22T18:41:07.401Z,38.23
2022-08-22T18:43:44.961Z,39.10
2022-08-22T18:46:51.649Z,39.58
2022-08-22T18:49:18.715Z,39.76
2022-08-22T18:52:05.194Z,39.71
2022-08-22T18:55:06.100Z,39.99
2022-08-22T18:57:44.922Z,40.53
2022-08-22T19:00:43.746Z,41.17
2022-08-22T19:03:25.540Z,41.28
2022-08-22T19:06:32.116Z,41.67
2022-08-22T19:09:20.280Z,42.44
2022-08-22T19:12:07.106Z,43.04
2022-08-22T19:15:00.354Z,43.36
2022-08-22T19:17:55.829Z,43.57
2022-08-22T19:20:29.613Z,43.65
2022-08-22T19:23:33.950Z,43.21
2022-08-22T19:26:24.544Z,43.69
2022-08-22T19:29:14.586Z,43.81
2022-08-22T19:31:50.464Z,44.25
2022-08-22T19:34:26.439Z,44.24
2022-08-22T19:37:11.333Z,44.26
2022-08-22T19:40:00.747Z,44.63
2022-08-22T19:42:37.150Z,44.73
2022-08-22T19:45:19.299Z,45.06
2022-08-22T19:48:00.352Z,45.31
2022-08-22T19:50:34.767Z,45.04
2022-08-22T19:53:47.616Z,45.75
2022-08-22T19:56:41.934Z,46.24
2022-08-22T19:59:22.987Z,46.63
2022-08-22T20:01:52.697Z,46.88
2022-08-22T20:04:50.624Z,46.79
2022-08-22T20:07:35.440Z,46.59
2022-08-22T20:10:17.295Z,46.61
2022-08-22T20:13:09.294Z,46.57
2022-08-22T20:16:01.019Z,46.93
2022-08-22T20:19:15.489Z,47.00
2022-08-22T20:22:00.998Z,46.88
2022-08-22T20:24:49.060Z,46.96
2022-08-22T20:27:27.767Z,47.52
2022-08-22T20:30:15.285Z,47.48
2022-08-22T20:32:50.534Z,47.00
2022-08-22T20:35:42.580Z,46.83
2022-08-22T20:38:17.104Z,47.14
2022-08-22T20:41:21.036Z,47.49
2022-08-22T20:44:04.328Z,48.00
2022-08-22T20:46:53.723Z,48.43
2022-08-22T20:49:21.986Z,48.06
2022-08-22T20:52:00.631Z,48.59
2022-08-22T20:54:31.356Z,48.65
2022-08-22T20:57:10.796Z,48.81
2022-08-22T20:59:41.197Z,49.23
2022-08-22T21:02:29.767Z,49.16
2022-08-22T21:05:27.356Z,48.90
2022-08-22T21:08:13.869Z,48.74
2022-08-22T21:10:45.608Z,48.56
2022-08-22T21:13:21.382Z,48.88
2022-08-22T21:16:00.740Z,49.61
2022-08-22T21:18:35.161Z,49.46
2022-08-22T21:21:12.734Z,49.90
2022-08-22T21:24:00.813Z,50.01
2022-08-22T21:26:35.000Z,50.65
2022-08-22T21:29:10.569Z,50.91
2022-08-22T21:31:42.878Z,50.80
2022-08-22T21:34:48.159Z,50.69
2022-08-22T21:37:27.203Z,50.90
2022-08-22T21:40:05.622Z,51.50
2022-08-22T21:42:36.107Z,51.49
2022-08-22T21:45:10.123Z,52.24
2022-08-22T21:47:40.217Z,51.90
2022-08-22T21:50:16.271Z,51.88
2022-08-22T21:53:00.576Z,51.31
2022-08-22T21:55:43.319Z,50.99
2022-08-22T21:58:35.750Z,51.57
2022-08-22T22:01:36.804Z,51.85
2022-08-22T22:04:09.387Z,52.34
2022-08-22T22:06:39.001Z,52.68
2022-08-22T22:09:05.708Z,51.91
2022-08-22T22:11:35.305Z,51.80
2022-08-22T22:14:04.970Z,51.66
2022-08-22T22:16:34.354Z,51.34
2022-08-22T22:19:08.982Z,50.98
2022-08-22T22:21:43.056Z,51.79
2022-08-22T22:24:20.959Z,51.73
2022-08-22T22:26:49.959Z,53.13
2022-08-22T22:29:22.985Z,53.61
2022-08-22T22:31:51.954Z,53.38
2022-08-22T22:34:31.370Z,53.07
2022-08-22T22:36:58.050Z,52.54
2022-08-22T22:39:36.064Z,53.05
2022-08-22T22:42:04.795Z,52.91
2022-08-22T22:44:31.447Z,53.11
2022-08-22T22:46:59.377Z,53.63
2022-08-22T22:49:32.737Z,54.07
2022-08-22T22:52:00.778Z,53.88
2022-08-22T22:54:27.837Z,54.78
2022-08-22T22:56:56.881Z,54.19
2022-08-22T22:59:25.594Z,54.71
2022-08-22T23:02:06.334Z,54.91
2022-08-22T23:04:34.787Z,55.52
2022-08-22T23:07:01.743Z,56.67
2022-08-22T23:09:38.021Z,56.66
2022-08-22T23:12:09.530Z,56.12
2022-08-22T23:14:36.168Z,56.71
2022-08-22T23:17:04.325Z,56.97
2022-08-22T23:19:31.130Z,56.69
2022-08-22T23:21:59.530Z,56.03
2022-08-22T23:24:29.422Z,55.96
2022-08-22T23:26:58.135Z,55.97
2022-08-22T23:29:25.584Z,55.73
2022-08-22T23:31:56.860Z,55.95
2022-08-22T23:34:33.168Z,56.18
2022-08-22T23:37:01.977Z,57.24
2022-08-22T23:39:34.599Z,57.95
2022-08-22T23:42:02.290Z,58.56
2022-08-22T23:44:32.619Z,59.26
2022-08-22T23:46:59.946Z,58.79
2022-08-22T23:49:29.619Z,57.69
2022-08-22T23:51:56.948Z,58.23
2022-08-22T23:54:24.012Z,58.10
2022-08-22T23:56:53.786Z,58.89
2022-08-22T23:59:30.845Z,58.19
